sensor_id;sensor_type;location;lat;lon;timestamp;P1;durP1;ratioP1;P2;durP2;ratioP2
4835;SDS011;2432;51.226;6.904;2023-01-05T00:01:38;36.53;;;5.00;;
4835;SDS011;2432;51.226;6.904;2023-01-05T00:04:04;27.13;;;6.00;;
4835;SDS011;2432;51.226;6.904;2023-01-05T00:06:32;29.00;;;5.03;;
4835;SDS011;2432;51.226;6.904;2023-01-05T00:08:58;33.90;;;6.63;;
4835;SDS011;2432;51.226;6.904;2023-01-05T00:11:25;24.73;;;4.90;;
4835;SDS011;2432;51.226;6.904;2023-01-05T00:14:12;21.10;;;4.90;;
4835;SDS011;2432;51.226;6.904;2023-01-05T00:16:59;31.37;;;5.10;;
4835;SDS011;2432;51.226;6.904;2023-01-05T00:19:44;25.30;;;4.83;;
4835;SDS011;2432;51.226;6.904;2023-01-05T00:22:29;29.97;;;5.47;;
4835;SDS011;2432;51.226;6.904;2023-01-05T00:27:23;26.50;;;4.93;;
4835;SDS011;2432;51.226;6.904;2023-01-05T00:29:50;30.40;;;5.67;;
4835;SDS011;2432;51.226;6.904;2023-01-05T00:32:16;31.53;;;6.37;;
4835;SDS011;2432;51.226;6.904;2023-01-05T00:34:43;38.03;;;5.20;;
4835;SDS011;2432;51.226;6.904;2023-01-05T00:37:09;30.97;;;5.70;;
4835;SDS011;2432;51.226;6.904;2023-01-05T00:39:36;36.33;;;6.33;;
4835;SDS011;2432;51.226;6.904;2023-01-05T00:42:02;33.60;;;5.17;;
4835;SDS011;2432;51.226;6.904;2023-01-05T00:44:29;31.10;;;6.20;;
4835;SDS011;2432;51.226;6.904;2023-01-05T00:46:55;30.57;;;7.87;;
4835;SDS011;2432;51.226;6.904;2023-01-05T00:49:22;30.93;;;5.80;;
4835;SDS011;2432;51.226;6.904;2023-01-05T00:51:48;23.77;;;5.10;;
4835;SDS011;2432;51.226;6.904;2023-01-05T00:54:15;23.33;;;4.60;;
4835;SDS011;2432;51.226;6.904;2023-01-05T00:56:41;32.80;;;5.73;;
4835;SDS011;2432;51.226;6.904;2023-01-05T00:59:08;41.37;;;7.30;;
4835;SDS011;2432;51.226;6.904;2023-01-05T01:01:35;28.20;;;4.87;;
4835;SDS011;2432;51.226;6.904;2023-01-05T01:04:01;29.97;;;5.20;;
4835;SDS011;2432;51.226;6.904;2023-01-05T01:06:28;32.53;;;4.83;;
4835;SDS011;2432;51.226;6.904;2023-01-05T01:08:55;31.53;;;5.10;;
4835;SDS011;2432;51.226;6.904;2023-01-05T01:11:21;25.00;;;4.57;;
4835;SDS011;2432;51.226;6.904;2023-01-05T01:13:48;30.43;;;5.53;;
4835;SDS011;2432;51.226;6.904;2023-01-05T01:16:14;35.30;;;5.70;;
4835;SDS011;2432;51.226;6.904;2023-01-05T01:18:41;28.47;;;6.30;;
4835;SDS011;2432;51.226;6.904;2023-01-05T01:21:08;31.63;;;5.90;;
4835;SDS011;2432;51.226;6.904;2023-01-05T01:23:35;29.43;;;5.10;;
4835;SDS011;2432;51.226;6.904;2023-01-05T01:26:05;28.17;;;5.40;;
4835;SDS011;2432;51.226;6.904;2023-01-05T01:28:33;32.23;;;5.30;;
4835;SDS011;2432;51.226;6.904;2023-01-05T01:31:00;30.87;;;5.90;;
4835;SDS011;2432;51.226;6.904;2023-01-05T01:33:27;29.30;;;5.30;;
4835;SDS011;2432;51.226;6.904;2023-01-05T01:35:54;25.93;;;5.10;;
4835;SDS011;2432;51.226;6.904;2023-01-05T01:38:21;29.73;;;4.70;;
4835;SDS011;2432;51.226;6.904;2023-01-05T01:40:48;26.67;;;4.83;;
4835;SDS011;2432;51.226;6.904;2023-01-05T01:43:19;25.63;;;5.50;;
4835;SDS011;2432;51.226;6.904;2023-01-05T01:46:07;32.17;;;5.43;;
4835;SDS011;2432;51.226;6.904;2023-01-05T01:48:35;32.93;;;6.00;;
4835;SDS011;2432;51.226;6.904;2023-01-05T01:51:02;41.63;;;6.20;;
4835;SDS011;2432;51.226;6.904;2023-01-05T01:53:38;30.63;;;5.13;;
4835;SDS011;2432;51.226;6.904;2023-01-05T01:56:08;44.17;;;6.40;;
4835;SDS011;2432;51.226;6.904;2023-01-05T01:58:37;38.60;;;6.53;;
4835;SDS011;2432;51.226;6.904;2023-01-05T02:01:04;28.37;;;4.97;;
4835;SDS011;2432;51.226;6.904;2023-01-05T02:03:31;32.43;;;5.87;;
4835;SDS011;2432;51.226;6.904;2023-01-05T02:05:57;31.63;;;5.80;;
4835;SDS011;2432;51.226;6.904;2023-01-05T02:08:25;32.87;;;5.20;;
4835;SDS011;2432;51.226;6.904;2023-01-05T02:24:38;40.33;;;6.60;;
4835;SDS011;2432;51.226;6.904;2023-01-05T02:27:39;38.23;;;5.70;;
4835;SDS011;2432;51.226;6.904;2023-01-05T02:35:50;31.23;;;4.97;;
4835;SDS011;2432;51.226;6.904;2023-01-05T02:41:12;30.77;;;5.70;;
4835;SDS011;2432;51.226;6.904;2023-01-05T02:43:44;35.27;;;6.33;;
4835;SDS011;2432;51.226;6.904;2023-01-05T02:46:11;37.20;;;6.00;;
4835;SDS011;2432;51.226;6.904;2023-01-05T02:48:38;28.90;;;5.23;;
4835;SDS011;2432;51.226;6.904;2023-01-05T02:51:15;37.10;;;5.60;;
4835;SDS011;2432;51.226;6.904;2023-01-05T02:54:01;25.27;;;6.00;;
4835;SDS011;2432;51.226;6.904;2023-01-05T02:56:40;30.20;;;6.03;;
4835;SDS011;2432;51.226;6.904;2023-01-05T02:59:11;36.10;;;5.80;;
4835;SDS011;2432;51.226;6.904;2023-01-05T03:02:10;34.73;;;5.80;;
4835;SDS011;2432;51.226;6.904;2023-01-05T03:04:47;40.40;;;7.43;;
4835;SDS011;2432;51.226;6.904;2023-01-05T03:07:30;28.07;;;6.27;;
4835;SDS011;2432;51.226;6.904;2023-01-05T03:10:00;28.40;;;4.93;;
4835;SDS011;2432;51.226;6.904;2023-01-05T03:12:47;33.97;;;6.20;;
4835;SDS011;2432;51.226;6.904;2023-01-05T03:15:36;29.77;;;5.10;;
4835;SDS011;2432;51.226;6.904;2023-01-05T03:18:11;27.67;;;5.80;;
4835;SDS011;2432;51.226;6.904;2023-01-05T03:20:43;38.83;;;5.77;;
4835;SDS011;2432;51.226;6.904;2023-01-05T03:23:13;37.93;;;6.37;;
4835;SDS011;2432;51.226;6.904;2023-01-05T03:26:02;32.57;;;5.73;;
4835;SDS011;2432;51.226;6.904;2023-01-05T03:28:49;31.80;;;6.00;;
4835;SDS011;2432;51.226;6.904;2023-01-05T03:32:13;35.50;;;5.27;;
4835;SDS011;2432;51.226;6.904;2023-01-05T03:35:33;33.13;;;5.83;;
4835;SDS011;2432;51.226;6.904;2023-01-05T03:38:03;36.17;;;5.80;;
4835;SDS011;2432;51.226;6.904;2023-01-05T03:40:43;29.80;;;6.07;;
4835;SDS011;2432;51.226;6.904;2023-01-05T03:43:11;27.30;;;5.33;;
4835;SDS011;2432;51.226;6.904;2023-01-05T03:45:40;37.13;;;6.10;;
4835;SDS011;2432;51.226;6.904;2023-01-05T03:48:10;31.77;;;5.57;;
4835;SDS011;2432;51.226;6.904;2023-01-05T03:50:37;41.43;;;6.43;;
4835;SDS011;2432;51.226;6.904;2023-01-05T03:53:03;42.53;;;5.70;;
4835;SDS011;2432;51.226;6.904;2023-01-05T03:55:30;24.50;;;4.90;;
4835;SDS011;2432;51.226;6.904;2023-01-05T03:57:56;32.90;;;4.83;;
4835;SDS011;2432;51.226;6.904;2023-01-05T04:00:23;27.30;;;4.93;;
4835;SDS011;2432;51.226;6.904;2023-01-05T04:02:50;31.63;;;5.57;;
4835;SDS011;2432;51.226;6.904;2023-01-05T04:05:18;36.70;;;6.83;;
4835;SDS011;2432;51.226;6.904;2023-01-05T04:07:44;31.33;;;4.93;;
4835;SDS011;2432;51.226;6.904;2023-01-05T04:10:11;34.60;;;5.53;;
4835;SDS011;2432;51.226;6.904;2023-01-05T04:12:37;35.40;;;6.73;;
4835;SDS011;2432;51.226;6.904;2023-01-05T04:15:04;32.93;;;6.00;;
4835;SDS011;2432;51.226;6.904;2023-01-05T04:17:31;33.43;;;5.60;;
4835;SDS011;2432;51.226;6.904;2023-01-05T04:19:57;33.70;;;5.90;;
4835;SDS011;2432;51.226;6.904;2023-01-05T04:22:24;34.77;;;6.47;;
4835;SDS011;2432;51.226;6.904;2023-01-05T04:24:52;31.20;;;5.47;;
4835;SDS011;2432;51.226;6.904;2023-01-05T04:27:19;36.60;;;5.27;;
4835;SDS011;2432;51.226;6.904;2023-01-05T04:29:45;32.10;;;6.50;;
4835;SDS011;2432;51.226;6.904;2023-01-05T04:32:12;34.07;;;6.43;;
4835;SDS011;2432;51.226;6.904;2023-01-05T04:34:39;35.50;;;6.37;;
4835;SDS011;2432;51.226;6.904;2023-01-05T04:37:05;30.67;;;5.37;;
4835;SDS011;2432;51.226;6.904;2023-01-05T04:39:32;34.23;;;5.53;;
4835;SDS011;2432;51.226;6.904;2023-01-05T04:41:58;37.03;;;7.43;;
4835;SDS011;2432;51.226;6.904;2023-01-05T04:44:24;31.77;;;5.40;;
4835;SDS011;2432;51.226;6.904;2023-01-05T04:46:51;31.73;;;5.90;;
4835;SDS011;2432;51.226;6.904;2023-01-05T04:49:17;32.23;;;5.40;;
4835;SDS011;2432;51.226;6.904;2023-01-05T04:51:44;28.87;;;5.30;;
4835;SDS011;2432;51.226;6.904;2023-01-05T04:54:10;31.17;;;6.00;;
4835;SDS011;2432;51.226;6.904;2023-01-05T04:56:37;34.83;;;6.20;;
4835;SDS011;2432;51.226;6.904;2023-01-05T04:59:03;33.63;;;5.60;;
4835;SDS011;2432;51.226;6.904;2023-01-05T05:01:30;35.70;;;6.57;;
4835;SDS011;2432;51.226;6.904;2023-01-05T05:03:57;37.83;;;5.70;;
4835;SDS011;2432;51.226;6.904;2023-01-05T05:06:23;35.03;;;5.80;;
4835;SDS011;2432;51.226;6.904;2023-01-05T05:08:50;36.37;;;6.67;;
4835;SDS011;2432;51.226;6.904;2023-01-05T05:11:16;29.03;;;5.63;;
4835;SDS011;2432;51.226;6.904;2023-01-05T05:13:43;34.50;;;6.10;;
4835;SDS011;2432;51.226;6.904;2023-01-05T05:16:09;34.10;;;6.40;;
4835;SDS011;2432;51.226;6.904;2023-01-05T05:18:36;38.37;;;5.47;;
4835;SDS011;2432;51.226;6.904;2023-01-05T05:21:02;37.80;;;6.30;;
4835;SDS011;2432;51.226;6.904;2023-01-05T05:23:29;38.27;;;5.93;;
4835;SDS011;2432;51.226;6.904;2023-01-05T05:25:55;29.13;;;5.23;;
4835;SDS011;2432;51.226;6.904;2023-01-05T05:28:22;32.97;;;5.73;;
4835;SDS011;2432;51.226;6.904;2023-01-05T05:30:53;35.50;;;7.03;;
4835;SDS011;2432;51.226;6.904;2023-01-05T05:33:23;35.87;;;7.43;;
4835;SDS011;2432;51.226;6.904;2023-01-05T05:35:50;39.50;;;6.73;;
4835;SDS011;2432;51.226;6.904;2023-01-05T05:38:17;29.87;;;6.00;;
4835;SDS011;2432;51.226;6.904;2023-01-05T05:40:44;38.33;;;6.33;;
4835;SDS011;2432;51.226;6.904;2023-01-05T05:43:12;43.70;;;5.73;;
4835;SDS011;2432;51.226;6.904;2023-01-05T05:45:39;37.27;;;6.13;;
4835;SDS011;2432;51.226;6.904;2023-01-05T05:48:13;32.53;;;6.23;;
4835;SDS011;2432;51.226;6.904;2023-01-05T05:50:39;35.30;;;6.50;;
4835;SDS011;2432;51.226;6.904;2023-01-05T05:53:06;33.90;;;6.20;;
4835;SDS011;2432;51.226;6.904;2023-01-05T05:55:33;30.40;;;6.33;;
4835;SDS011;2432;51.226;6.904;2023-01-05T05:57:59;31.33;;;5.73;;
4835;SDS011;2432;51.226;6.904;2023-01-05T06:00:26;34.70;;;5.60;;
4835;SDS011;2432;51.226;6.904;2023-01-05T06:02:52;34.73;;;7.00;;
4835;SDS011;2432;51.226;6.904;2023-01-05T06:05:19;27.50;;;5.50;;
4835;SDS011;2432;51.226;6.904;2023-01-05T06:07:46;42.27;;;6.60;;
4835;SDS011;2432;51.226;6.904;2023-01-05T06:10:13;39.87;;;6.17;;
4835;SDS011;2432;51.226;6.904;2023-01-05T06:12:40;32.47;;;5.80;;
4835;SDS011;2432;51.226;6.904;2023-01-05T06:15:07;27.50;;;5.87;;
4835;SDS011;2432;51.226;6.904;2023-01-05T06:17:34;33.57;;;5.50;;
4835;SDS011;2432;51.226;6.904;2023-01-05T06:20:00;40.43;;;6.70;;
4835;SDS011;2432;51.226;6.904;2023-01-05T06:22:26;33.90;;;6.90;;
4835;SDS011;2432;51.226;6.904;2023-01-05T06:24:53;33.67;;;7.27;;
4835;SDS011;2432;51.226;6.904;2023-01-05T06:27:20;39.27;;;6.87;;
4835;SDS011;2432;51.226;6.904;2023-01-05T06:29:46;41.13;;;8.60;;
4835;SDS011;2432;51.226;6.904;2023-01-05T06:32:13;34.63;;;5.63;;
4835;SDS011;2432;51.226;6.904;2023-01-05T06:34:39;35.73;;;7.10;;
4835;SDS011;2432;51.226;6.904;2023-01-05T06:37:06;32.03;;;6.60;;
4835;SDS011;2432;51.226;6.904;2023-01-05T06:39:32;34.90;;;6.03;;
4835;SDS011;2432;51.226;6.904;2023-01-05T06:41:59;40.20;;;7.43;;
4835;SDS011;2432;51.226;6.904;2023-01-05T06:44:25;41.13;;;7.27;;
4835;SDS011;2432;51.226;6.904;2023-01-05T06:46:53;28.10;;;5.97;;
4835;SDS011;2432;51.226;6.904;2023-01-05T06:49:19;34.13;;;6.40;;
4835;SDS011;2432;51.226;6.904;2023-01-05T06:51:46;37.87;;;8.23;;
4835;SDS011;2432;51.226;6.904;2023-01-05T06:54:12;33.80;;;6.50;;
4835;SDS011;2432;51.226;6.904;2023-01-05T06:56:39;32.50;;;7.13;;
4835;SDS011;2432;51.226;6.904;2023-01-05T06:59:05;36.90;;;6.37;;
4835;SDS011;2432;51.226;6.904;2023-01-05T07:01:32;33.87;;;5.93;;
4835;SDS011;2432;51.226;6.904;2023-01-05T07:03:58;45.43;;;7.60;;
4835;SDS011;2432;51.226;6.904;2023-01-05T07:06:25;39.23;;;7.13;;
4835;SDS011;2432;51.226;6.904;2023-01-05T07:08:51;41.00;;;7.30;;
4835;SDS011;2432;51.226;6.904;2023-01-05T07:11:18;36.47;;;6.93;;
4835;SDS011;2432;51.226;6.904;2023-01-05T07:13:48;35.10;;;6.43;;
4835;SDS011;2432;51.226;6.904;2023-01-05T07:16:16;39.33;;;6.90;;
4835;SDS011;2432;51.226;6.904;2023-01-05T07:18:42;37.07;;;6.30;;
4835;SDS011;2432;51.226;6.904;2023-01-05T07:21:09;41.40;;;8.23;;
4835;SDS011;2432;51.226;6.904;2023-01-05T07:23:36;33.40;;;6.33;;
4835;SDS011;2432;51.226;6.904;2023-01-05T07:26:06;38.87;;;6.93;;
4835;SDS011;2432;51.226;6.904;2023-01-05T07:28:34;49.27;;;7.63;;
4835;SDS011;2432;51.226;6.904;2023-01-05T07:31:01;36.33;;;7.47;;
4835;SDS011;2432;51.226;6.904;2023-01-05T07:33:28;39.40;;;7.20;;
4835;SDS011;2432;51.226;6.904;2023-01-05T07:36:00;41.20;;;6.87;;
4835;SDS011;2432;51.226;6.904;2023-01-05T07:38:27;43.70;;;6.73;;
4835;SDS011;2432;51.226;6.904;2023-01-05T07:40:56;28.47;;;7.03;;
4835;SDS011;2432;51.226;6.904;2023-01-05T07:43:24;40.10;;;6.70;;
4835;SDS011;2432;51.226;6.904;2023-01-05T07:45:55;37.53;;;7.70;;
4835;SDS011;2432;51.226;6.904;2023-01-05T07:48:22;47.37;;;6.50;;
4835;SDS011;2432;51.226;6.904;2023-01-05T07:50:49;46.87;;;8.27;;
4835;SDS011;2432;51.226;6.904;2023-01-05T07:53:15;47.57;;;7.93;;
4835;SDS011;2432;51.226;6.904;2023-01-05T07:55:42;41.20;;;6.17;;
4835;SDS011;2432;51.226;6.904;2023-01-05T07:58:08;35.23;;;6.77;;
4835;SDS011;2432;51.226;6.904;2023-01-05T08:00:34;39.17;;;7.30;;
4835;SDS011;2432;51.226;6.904;2023-01-05T08:03:01;46.60;;;7.27;;
4835;SDS011;2432;51.226;6.904;2023-01-05T08:05:27;48.13;;;7.20;;
4835;SDS011;2432;51.226;6.904;2023-01-05T08:07:59;33.03;;;6.53;;
4835;SDS011;2432;51.226;6.904;2023-01-05T08:10:25;45.10;;;7.67;;
4835;SDS011;2432;51.226;6.904;2023-01-05T08:12:59;42.63;;;7.00;;
4835;SDS011;2432;51.226;6.904;2023-01-05T08:15:45;45.27;;;7.07;;
4835;SDS011;2432;51.226;6.904;2023-01-05T08:18:16;35.13;;;7.90;;
4835;SDS011;2432;51.226;6.904;2023-01-05T08:20:48;37.50;;;7.77;;
4835;SDS011;2432;51.226;6.904;2023-01-05T08:23:19;38.47;;;8.73;;
4835;SDS011;2432;51.226;6.904;2023-01-05T08:25:52;40.53;;;7.67;;
4835;SDS011;2432;51.226;6.904;2023-01-05T08:28:19;41.93;;;8.60;;
4835;SDS011;2432;51.226;6.904;2023-01-05T08:30:45;42.47;;;7.87;;
4835;SDS011;2432;51.226;6.904;2023-01-05T08:33:12;43.30;;;8.10;;
4835;SDS011;2432;51.226;6.904;2023-01-05T08:35:39;45.87;;;8.17;;
4835;SDS011;2432;51.226;6.904;2023-01-05T08:38:07;46.93;;;7.70;;
4835;SDS011;2432;51.226;6.904;2023-01-05T08:40:34;40.77;;;7.67;;
4835;SDS011;2432;51.226;6.904;2023-01-05T08:43:04;40.67;;;8.23;;
4835;SDS011;2432;51.226;6.904;2023-01-05T08:45:31;52.10;;;9.40;;
4835;SDS011;2432;51.226;6.904;2023-01-05T08:48:00;51.80;;;9.90;;
4835;SDS011;2432;51.226;6.904;2023-01-05T08:50:26;41.90;;;7.80;;
4835;SDS011;2432;51.226;6.904;2023-01-05T08:52:53;57.17;;;8.43;;
4835;SDS011;2432;51.226;6.904;2023-01-05T08:55:19;44.13;;;7.90;;
4835;SDS011;2432;51.226;6.904;2023-01-05T08:57:46;43.00;;;8.30;;
4835;SDS011;2432;51.226;6.904;2023-01-05T09:00:13;41.97;;;7.43;;
4835;SDS011;2432;51.226;6.904;2023-01-05T09:02:42;33.40;;;7.13;;
4835;SDS011;2432;51.226;6.904;2023-01-05T09:05:09;40.43;;;7.83;;
4835;SDS011;2432;51.226;6.904;2023-01-05T09:07:36;46.63;;;7.83;;
4835;SDS011;2432;51.226;6.904;2023-01-05T09:10:03;36.80;;;7.27;;
4835;SDS011;2432;51.226;6.904;2023-01-05T09:12:33;34.13;;;7.37;;
4835;SDS011;2432;51.226;6.904;2023-01-05T09:15:01;44.53;;;8.80;;
4835;SDS011;2432;51.226;6.904;2023-01-05T09:17:27;40.40;;;7.30;;
4835;SDS011;2432;51.226;6.904;2023-01-05T09:19:54;43.70;;;7.77;;
4835;SDS011;2432;51.226;6.904;2023-01-05T09:22:20;49.93;;;8.90;;
4835;SDS011;2432;51.226;6.904;2023-01-05T09:24:47;48.23;;;8.20;;
4835;SDS011;2432;51.226;6.904;2023-01-05T09:27:13;45.53;;;7.00;;
4835;SDS011;2432;51.226;6.904;2023-01-05T09:29:40;44.03;;;8.40;;
4835;SDS011;2432;51.226;6.904;2023-01-05T09:32:06;35.43;;;7.23;;
4835;SDS011;2432;51.226;6.904;2023-01-05T09:34:33;34.90;;;7.87;;
4835;SDS011;2432;51.226;6.904;2023-01-05T09:36:59;49.30;;;7.80;;
4835;SDS011;2432;51.226;6.904;2023-01-05T09:39:26;48.53;;;9.20;;
4835;SDS011;2432;51.226;6.904;2023-01-05T09:41:53;40.93;;;7.90;;
4835;SDS011;2432;51.226;6.904;2023-01-05T09:46:53;55.73;;;8.13;;
4835;SDS011;2432;51.226;6.904;2023-01-05T09:49:22;37.60;;;7.87;;
4835;SDS011;2432;51.226;6.904;2023-01-05T09:51:53;41.60;;;8.80;;
4835;SDS011;2432;51.226;6.904;2023-01-05T09:54:25;34.67;;;7.20;;
4835;SDS011;2432;51.226;6.904;2023-01-05T09:56:53;46.07;;;8.03;;
4835;SDS011;2432;51.226;6.904;2023-01-05T09:59:40;50.47;;;9.03;;
4835;SDS011;2432;51.226;6.904;2023-01-05T10:02:13;51.13;;;8.30;;
4835;SDS011;2432;51.226;6.904;2023-01-05T10:04:44;40.30;;;7.70;;
4835;SDS011;2432;51.226;6.904;2023-01-05T10:10:04;51.47;;;7.30;;
4835;SDS011;2432;51.226;6.904;2023-01-05T10:12:43;46.83;;;7.67;;
4835;SDS011;2432;51.226;6.904;2023-01-05T10:18:14;43.47;;;8.63;;
4835;SDS011;2432;51.226;6.904;2023-01-05T10:26:17;50.77;;;8.70;;
4835;SDS011;2432;51.226;6.904;2023-01-05T10:28:56;40.87;;;7.00;;
4835;SDS011;2432;51.226;6.904;2023-01-05T10:34:18;43.73;;;7.07;;
4835;SDS011;2432;51.226;6.904;2023-01-05T10:37:06;51.93;;;8.67;;
4835;SDS011;2432;51.226;6.904;2023-01-05T10:46:02;43.60;;;7.40;;
4835;SDS011;2432;51.226;6.904;2023-01-05T10:48:49;49.53;;;9.67;;
4835;SDS011;2432;51.226;6.904;2023-01-05T10:51:16;46.87;;;8.50;;
4835;SDS011;2432;51.226;6.904;2023-01-05T10:53:43;46.27;;;8.97;;
4835;SDS011;2432;51.226;6.904;2023-01-05T10:56:14;42.97;;;8.83;;
4835;SDS011;2432;51.226;6.904;2023-01-05T10:58:48;44.53;;;7.63;;
4835;SDS011;2432;51.226;6.904;2023-01-05T11:01:30;41.23;;;7.53;;
4835;SDS011;2432;51.226;6.904;2023-01-05T11:07:01;47.40;;;8.60;;
4835;SDS011;2432;51.226;6.904;2023-01-05T11:09:29;34.00;;;7.27;;
4835;SDS011;2432;51.226;6.904;2023-01-05T11:11:57;37.33;;;7.37;;
4835;SDS011;2432;51.226;6.904;2023-01-05T11:14:26;43.33;;;7.00;;
4835;SDS011;2432;51.226;6.904;2023-01-05T11:16:59;42.73;;;8.70;;
4835;SDS011;2432;51.226;6.904;2023-01-05T11:19:33;38.77;;;7.10;;
4835;SDS011;2432;51.226;6.904;2023-01-05T11:22:02;41.83;;;7.70;;
4835;SDS011;2432;51.226;6.904;2023-01-05T11:24:32;42.33;;;7.70;;
4835;SDS011;2432;51.226;6.904;2023-01-05T11:27:04;45.40;;;6.83;;
4835;SDS011;2432;51.226;6.904;2023-01-05T11:30:17;40.33;;;7.20;;
4835;SDS011;2432;51.226;6.904;2023-01-05T11:32:36;36.90;;;5.83;;
4835;SDS011;2432;51.226;6.904;2023-01-05T11:35:16;32.80;;;6.27;;
4835;SDS011;2432;51.226;6.904;2023-01-05T11:37:47;38.07;;;7.70;;
4835;SDS011;2432;51.226;6.904;2023-01-05T11:40:14;35.77;;;7.03;;
4835;SDS011;2432;51.226;6.904;2023-01-05T11:42:43;45.03;;;7.30;;
4835;SDS011;2432;51.226;6.904;2023-01-05T11:45:21;41.90;;;7.37;;
4835;SDS011;2432;51.226;6.904;2023-01-05T11:48:04;42.27;;;7.67;;
4835;SDS011;2432;51.226;6.904;2023-01-05T11:50:52;39.23;;;6.70;;
4835;SDS011;2432;51.226;6.904;2023-01-05T11:56:01;37.47;;;6.90;;
4835;SDS011;2432;51.226;6.904;2023-01-05T11:58:43;39.03;;;7.43;;
4835;SDS011;2432;51.226;6.904;2023-01-05T12:09:50;44.10;;;7.80;;
4835;SDS011;2432;51.226;6.904;2023-01-05T12:18:19;38.53;;;7.20;;
4835;SDS011;2432;51.226;6.904;2023-01-05T12:36:20;42.87;;;8.80;;
4835;SDS011;2432;51.226;6.904;2023-01-05T12:41:52;48.07;;;7.43;;
4835;SDS011;2432;51.226;6.904;2023-01-05T12:44:34;35.90;;;7.10;;
4835;SDS011;2432;51.226;6.904;2023-01-05T12:52:57;37.80;;;8.50;;
4835;SDS011;2432;51.226;6.904;2023-01-05T12:55:34;32.57;;;6.80;;
4835;SDS011;2432;51.226;6.904;2023-01-05T12:58:22;32.50;;;7.13;;
4835;SDS011;2432;51.226;6.904;2023-01-05T13:00:52;30.00;;;6.13;;
4835;SDS011;2432;51.226;6.904;2023-01-05T13:03:25;31.50;;;7.13;;
4835;SDS011;2432;51.226;6.904;2023-01-05T13:06:09;30.40;;;5.80;;
4835;SDS011;2432;51.226;6.904;2023-01-05T13:08:41;44.00;;;6.90;;
4835;SDS011;2432;51.226;6.904;2023-01-05T13:11:18;38.77;;;7.57;;
4835;SDS011;2432;51.226;6.904;2023-01-05T13:13:51;27.83;;;4.83;;
4835;SDS011;2432;51.226;6.904;2023-01-05T13:16:24;37.50;;;5.90;;
4835;SDS011;2432;51.226;6.904;2023-01-05T13:19:03;28.67;;;5.93;;
4835;SDS011;2432;51.226;6.904;2023-01-05T13:21:35;36.17;;;6.70;;
4835;SDS011;2432;51.226;6.904;2023-01-05T13:24:17;30.40;;;6.13;;
4835;SDS011;2432;51.226;6.904;2023-01-05T13:26:53;39.57;;;7.70;;
4835;SDS011;2432;51.226;6.904;2023-01-05T13:29:35;30.23;;;5.50;;
4835;SDS011;2432;51.226;6.904;2023-01-05T13:35:13;26.63;;;5.00;;
4835;SDS011;2432;51.226;6.904;2023-01-05T13:37:55;32.00;;;5.80;;
4835;SDS011;66719;51.226;6.902;2023-01-05T13:40:54;32.07;;;5.30;;
4835;SDS011;66719;51.226;6.902;2023-01-05T13:51:51;28.17;;;5.67;;
4835;SDS011;66719;51.226;6.902;2023-01-05T13:54:25;32.57;;;5.73;;
4835;SDS011;66719;51.226;6.902;2023-01-05T13:57:23;39.47;;;6.87;;
4835;SDS011;66719;51.226;6.902;2023-01-05T13:59:54;39.77;;;6.23;;
4835;SDS011;66719;51.226;6.902;2023-01-05T14:02:34;33.87;;;6.40;;
4835;SDS011;66719;51.226;6.902;2023-01-05T14:05:14;33.30;;;5.80;;
4835;SDS011;66719;51.226;6.902;2023-01-05T14:07:56;33.47;;;5.83;;
4835;SDS011;66719;51.226;6.902;2023-01-05T14:10:30;31.63;;;6.27;;
4835;SDS011;66719;51.226;6.902;2023-01-05T14:12:58;29.93;;;6.00;;
4835;SDS011;66719;51.226;6.902;2023-01-05T14:18:00;34.63;;;6.40;;
4835;SDS011;66719;51.226;6.902;2023-01-05T14:23:51;31.17;;;5.67;;
4835;SDS011;66719;51.226;6.902;2023-01-05T14:25:54;30.73;;;5.60;;
4835;SDS011;66719;51.226;6.902;2023-01-05T14:33:33;28.50;;;5.90;;
4835;SDS011;66719;51.226;6.902;2023-01-05T14:39:02;31.77;;;5.57;;
4835;SDS011;66719;51.226;6.902;2023-01-05T14:41:33;27.23;;;5.33;;
4835;SDS011;66719;51.226;6.902;2023-01-05T14:44:01;38.10;;;7.30;;
4835;SDS011;66719;51.226;6.902;2023-01-05T14:46:45;40.93;;;5.77;;
4835;SDS011;66719;51.226;6.902;2023-01-05T14:49:18;32.40;;;6.03;;
4835;SDS011;66719;51.226;6.902;2023-01-05T15:56:31;35.10;;;7.43;;
4835;SDS011;66719;51.226;6.902;2023-01-05T15:58:59;44.07;;;9.07;;
4835;SDS011;66719;51.226;6.902;2023-01-05T16:01:27;38.80;;;7.77;;
4835;SDS011;66719;51.226;6.902;2023-01-05T16:04:04;32.53;;;6.73;;
4835;SDS011;66719;51.226;6.902;2023-01-05T16:06:34;41.83;;;8.07;;
4835;SDS011;66719;51.226;6.902;2023-01-05T16:09:19;34.30;;;6.83;;
4835;SDS011;66719;51.226;6.902;2023-01-05T16:11:50;39.03;;;8.47;;
4835;SDS011;66719;51.226;6.902;2023-01-05T16:14:23;43.50;;;7.40;;
4835;SDS011;66719;51.226;6.902;2023-01-05T16:17:16;47.63;;;7.87;;
4835;SDS011;66719;51.226;6.902;2023-01-05T16:19:48;40.00;;;7.70;;
4835;SDS011;66719;51.226;6.902;2023-01-05T16:24:52;42.70;;;7.73;;
4835;SDS011;66719;51.226;6.902;2023-01-05T16:27:21;42.23;;;7.43;;
4835;SDS011;66719;51.226;6.902;2023-01-05T16:29:48;38.80;;;7.77;;
4835;SDS011;66719;51.226;6.902;2023-01-05T16:32:34;47.47;;;7.10;;
4835;SDS011;66719;51.226;6.902;2023-01-05T16:38:04;34.60;;;6.60;;
4835;SDS011;66719;51.226;6.902;2023-01-05T16:40:53;44.53;;;8.20;;
4835;SDS011;66719;51.226;6.902;2023-01-05T16:43:43;41.90;;;7.40;;
4835;SDS011;66719;51.226;6.902;2023-01-05T16:48:47;35.33;;;7.20;;
4835;SDS011;66719;51.226;6.902;2023-01-05T16:51:20;35.23;;;7.10;;
4835;SDS011;66719;51.226;6.902;2023-01-05T16:53:49;48.80;;;7.53;;
4835;SDS011;66719;51.226;6.902;2023-01-05T16:56:20;35.20;;;6.80;;
4835;SDS011;66719;51.226;6.902;2023-01-05T16:59:00;44.50;;;7.60;;
4835;SDS011;66719;51.226;6.902;2023-01-05T17:01:35;43.03;;;7.77;;
4835;SDS011;66719;51.226;6.902;2023-01-05T17:04:09;48.93;;;8.10;;
4835;SDS011;66719;51.226;6.902;2023-01-05T17:06:37;34.90;;;5.93;;
4835;SDS011;66719;51.226;6.902;2023-01-05T17:09:27;48.17;;;7.80;;
4835;SDS011;66719;51.226;6.902;2023-01-05T17:11:54;41.30;;;7.60;;
4835;SDS011;66719;51.226;6.902;2023-01-05T17:14:21;40.03;;;6.33;;
4835;SDS011;66719;51.226;6.902;2023-01-05T17:16:49;37.83;;;8.17;;
4835;SDS011;66719;51.226;6.902;2023-01-05T17:19:16;35.20;;;7.30;;
4835;SDS011;66719;51.226;6.902;2023-01-05T17:21:47;32.53;;;6.50;;
4835;SDS011;66719;51.226;6.902;2023-01-05T17:24:18;37.23;;;7.70;;
4835;SDS011;66719;51.226;6.902;2023-01-05T17:26:45;32.23;;;6.47;;
4835;SDS011;66719;51.226;6.902;2023-01-05T17:29:19;28.83;;;5.73;;
4835;SDS011;66719;51.226;6.902;2023-01-05T17:31:48;39.53;;;6.50;;
4835;SDS011;66719;51.226;6.902;2023-01-05T17:34:14;38.17;;;6.80;;
4835;SDS011;66719;51.226;6.902;2023-01-05T17:36:41;38.20;;;6.50;;
4835;SDS011;66719;51.226;6.902;2023-01-05T17:39:09;38.43;;;7.80;;
4835;SDS011;66719;51.226;6.902;2023-01-05T17:41:39;31.83;;;7.80;;
4835;SDS011;66719;51.226;6.902;2023-01-05T17:44:06;32.20;;;7.30;;
4835;SDS011;66719;51.226;6.902;2023-01-05T17:46:35;35.17;;;6.67;;
4835;SDS011;66719;51.226;6.902;2023-01-05T17:49:03;38.70;;;7.13;;
4835;SDS011;66719;51.226;6.902;2023-01-05T17:51:29;40.23;;;7.77;;
4835;SDS011;66719;51.226;6.902;2023-01-05T17:53:57;50.60;;;8.27;;
4835;SDS011;66719;51.226;6.902;2023-01-05T17:56:24;35.20;;;7.30;;
4835;SDS011;66719;51.226;6.902;2023-01-05T17:58:51;30.30;;;6.70;;
4835;SDS011;66719;51.226;6.902;2023-01-05T18:01:18;38.60;;;7.30;;
4835;SDS011;66719;51.226;6.902;2023-01-05T18:03:44;45.13;;;7.83;;
4835;SDS011;66719;51.226;6.902;2023-01-05T18:06:10;28.20;;;6.23;;
4835;SDS011;66719;51.226;6.902;2023-01-05T18:08:37;34.00;;;6.83;;
4835;SDS011;66719;51.226;6.902;2023-01-05T18:11:04;36.00;;;6.60;;
4835;SDS011;66719;51.226;6.902;2023-01-05T18:13:32;40.20;;;8.73;;
4835;SDS011;66719;51.226;6.902;2023-01-05T18:16:04;34.50;;;6.43;;
4835;SDS011;66719;51.226;6.902;2023-01-05T18:18:32;45.30;;;8.07;;
4835;SDS011;66719;51.226;6.902;2023-01-05T18:21:00;33.63;;;7.37;;
4835;SDS011;66719;51.226;6.902;2023-01-05T18:23:27;34.93;;;7.10;;
4835;SDS011;66719;51.226;6.902;2023-01-05T18:25:57;35.40;;;7.70;;
4835;SDS011;66719;51.226;6.902;2023-01-05T18:28:27;38.40;;;6.63;;
4835;SDS011;66719;51.226;6.902;2023-01-05T18:30:54;36.90;;;7.70;;